createdAt,value
2022-08-19T00:04:30.937Z,994.51
2022-08-19T00:14:37.470Z,994.33
2022-08-19T00:24:43.849Z,994.26
2022-08-19T00:34:54.924Z,994.14
2022-08-19T00:45:00.889Z,994.01
2022-08-19T00:55:07.191Z,993.84
2022-08-19T01:05:13.345Z,993.70
2022-08-19T01:15:19.514Z,993.51
2022-08-19T01:25:25.547Z,993.41
2022-08-19T01:35:33.178Z,993.10
2022-08-19T01:45:40.661Z,993.06
2022-08-19T01:55:46.221Z,993.22
2022-08-19T02:05:54.172Z,993.05
2022-08-19T02:16:00.240Z,993.12
2022-08-19T02:26:12.658Z,993.11
2022-08-19T02:36:20.791Z,993.25
2022-08-19T02:46:27.791Z,993.42
2022-08-19T02:56:34.120Z,993.86
2022-08-19T03:06:40.302Z,994.14
2022-08-19T03:16:46.912Z,994.26
2022-08-19T03:26:53.285Z,994.24
2022-08-19T03:37:00.234Z,994.24
2022-08-19T03:47:06.490Z,994.35
2022-08-19T03:57:13.018Z,994.39
2022-08-19T04:07:19.126Z,994.35
2022-08-19T04:17:25.736Z,994.17
2022-08-19T04:27:32.109Z,994.12
2022-08-19T04:37:38.244Z,994.09
2022-08-19T04:47:49.263Z,994.17
2022-08-19T04:57:55.995Z,994.03
2022-08-19T05:08:01.966Z,994.00
2022-08-19T05:18:08.235Z,994.16
2022-08-19T05:28:14.276Z,994.14
2022-08-19T05:38:20.824Z,994.27
2022-08-19T05:48:27.022Z,994.35
2022-08-19T05:58:32.922Z,994.35
2022-08-19T06:08:38.596Z,994.72
2022-08-19T06:18:44.306Z,994.88
2022-08-19T06:28:50.276Z,995.08
2022-08-19T06:38:58.701Z,995.34
2022-08-19T06:49:04.985Z,995.48
2022-08-19T06:59:12.057Z,995.59
2022-08-19T07:09:18.648Z,995.50
2022-08-19T07:19:25.038Z,995.39
2022-08-19T07:29:31.118Z,995.29
2022-08-19T07:39:37.710Z,995.53
2022-08-19T07:49:44.316Z,995.61
2022-08-19T07:59:53.740Z,995.69
2022-08-19T08:09:59.358Z,995.65
2022-08-19T08:20:11.675Z,995.75
2022-08-19T08:30:18.121Z,995.88
2022-08-19T08:40:24.986Z,996.07
2022-08-19T08:50:31.475Z,996.14
2022-08-19T09:00:37.745Z,996.09
2022-08-19T09:10:44.979Z,996.10
2022-08-19T09:20:53.073Z,996.01
2022-08-19T09:30:59.498Z,996.00
2022-08-19T09:41:05.861Z,996.05
2022-08-19T09:51:13.704Z,996.06
2022-08-19T10:01:23.528Z,995.97
2022-08-19T10:11:36.572Z,996.05
2022-08-19T10:21:42.260Z,996.04
2022-08-19T10:32:00.095Z,996.16
2022-08-19T10:42:00.719Z,996.15
2022-08-19T10:52:06.663Z,996.28
2022-08-19T11:02:18.700Z,996.40
2022-08-19T11:12:24.739Z,996.48
2022-08-19T11:22:39.045Z,996.51
2022-08-19T11:32:49.416Z,996.49
2022-08-19T11:42:55.748Z,996.43
2022-08-19T11:53:03.793Z,996.23
2022-08-19T12:03:12.404Z,996.06
2022-08-19T12:13:18.877Z,995.92
2022-08-19T12:23:25.428Z,995.89
2022-08-19T12:33:31.771Z,995.71
2022-08-19T12:43:38.203Z,995.91
2022-08-19T12:53:44.530Z,995.99
2022-08-19T13:03:51.128Z,996.01
2022-08-19T13:13:57.577Z,996.06
2022-08-19T13:24:04.515Z,996.17
2022-08-19T13:34:13.723Z,996.16
2022-08-19T13:44:19.677Z,996.28
2022-08-19T13:54:27.962Z,996.16
2022-08-19T14:04:34.350Z,996.14
2022-08-19T14:14:40.642Z,996.22
2022-08-19T14:24:47.923Z,996.22
2022-08-19T14:34:54.371Z,996.15
2022-08-19T14:45:00.047Z,996.13
2022-08-19T14:55:07.519Z,996.09
2022-08-19T15:05:13.741Z,996.13
2022-08-19T15:15:19.600Z,996.06
2022-08-19T15:25:25.292Z,996.18
2022-08-19T15:35:31.266Z,996.15
2022-08-19T15:45:37.088Z,996.04
2022-08-19T15:55:42.896Z,996.08
2022-08-19T16:05:48.719Z,996.07
2022-08-19T16:15:54.690Z,995.94
2022-08-19T16:26:00.635Z,995.95
2022-08-19T16:36:07.706Z,996.08
2022-08-19T16:46:18.607Z,996.06
2022-08-19T16:56:24.828Z,996.15
2022-08-19T17:06:30.707Z,996.17
2022-08-19T17:16:36.574Z,996.13
2022-08-19T17:26:42.097Z,996.22
2022-08-19T17:36:48.020Z,996.24
2022-08-19T17:46:53.800Z,996.27
2022-08-19T17:56:59.406Z,996.31
2022-08-19T18:07:05.345Z,996.27
2022-08-19T18:18:42.000Z,996.09
2022-08-19T18:28:49.724Z,996.37
2022-08-19T18:38:55.997Z,996.41
2022-08-19T18:49:01.380Z,996.49
2022-08-19T18:59:07.038Z,996.66
2022-08-19T19:09:13.437Z,996.65
2022-08-19T19:19:21.537Z,996.57
2022-08-19T19:29:29.905Z,996.66
2022-08-19T19:39:46.403Z,996.84
2022-08-19T19:50:12.707Z,996.84
2022-08-19T20:00:00.763Z,996.88
2022-08-19T20:10:06.773Z,997.05
2022-08-19T20:20:14.385Z,997.27
2022-08-19T20:30:20.140Z,997.29
2022-08-19T20:40:28.335Z,997.39
2022-08-19T20:50:34.469Z,997.38
2022-08-19T21:00:40.747Z,997.37
2022-08-19T21:10:47.152Z,997.29
2022-08-19T21:20:53.235Z,997.32
2022-08-19T21:30:59.817Z,997.41
2022-08-19T21:41:06.868Z,997.37
2022-08-19T21:51:13.346Z,997.39
2022-08-19T22:01:20.446Z,997.40
2022-08-19T22:11:26.566Z,997.32
2022-08-19T22:21:40.278Z,997.23
2022-08-19T22:31:43.903Z,997.27
2022-08-19T22:41:50.000Z,997.32
2022-08-19T22:51:56.208Z,997.39
2022-08-19T23:02:06.549Z,997.55
2022-08-19T23:12:12.310Z,997.63
2022-08-19T23:22:20.159Z,997.57
2022-08-19T23:32:31.085Z,997.53
2022-08-19T23:42:37.470Z,997.60
2022-08-19T23:52:43.642Z,997.56
